createdAt,value
2018-03-15T00:01:58.614Z,27.50
2018-03-15T00:04:41.036Z,25.77
2018-03-15T00:07:09.529Z,21.80
2018-03-15T00:09:37.135Z,22.03
2018-03-15T00:12:06.219Z,22.67
2018-03-15T00:14:34.046Z,25.00
2018-03-15T00:17:01.737Z,22.73
2018-03-15T00:19:29.545Z,24.30
2018-03-15T00:21:57.197Z,26.10
2018-03-15T00:24:24.888Z,23.80
2018-03-15T00:26:52.558Z,27.57
2018-03-15T00:29:20.174Z,20.90
2018-03-15T00:31:47.823Z,25.33
2018-03-15T00:34:16.110Z,37.87
2018-03-15T00:36:43.843Z,20.47
2018-03-15T00:39:11.462Z,27.27
2018-03-15T00:41:39.344Z,34.23
2018-03-15T00:44:07.119Z,23.93
2018-03-15T00:46:34.899Z,34.63
2018-03-15T00:49:02.722Z,28.90
2018-03-15T00:51:30.347Z,32.20
2018-03-15T00:53:58.010Z,30.97
2018-03-15T00:56:25.652Z,28.87
2018-03-15T00:58:53.235Z,23.23
2018-03-15T01:01:20.945Z,24.47
2018-03-15T01:03:48.730Z,25.50
2018-03-15T01:06:16.319Z,31.70
2018-03-15T01:08:44.127Z,30.87
2018-03-15T01:11:11.860Z,35.47
2018-03-15T01:13:39.437Z,26.90
2018-03-15T01:16:07.059Z,29.73
2018-03-15T01:18:34.679Z,26.10
2018-03-15T01:21:02.458Z,29.37
2018-03-15T01:23:30.128Z,28.13
2018-03-15T01:25:57.708Z,28.03
2018-03-15T01:28:25.365Z,33.30
2018-03-15T01:30:53.059Z,26.83
2018-03-15T01:33:20.732Z,34.17
2018-03-15T01:35:48.312Z,26.90
2018-03-15T01:38:15.962Z,17.50
2018-03-15T01:40:43.539Z,28.87
2018-03-15T01:43:11.333Z,36.10
2018-03-15T01:45:38.954Z,27.47
2018-03-15T01:48:06.739Z,25.43
2018-03-15T01:50:34.562Z,26.47
2018-03-15T01:53:02.210Z,16.80
2018-03-15T01:55:29.786Z,28.67
2018-03-15T01:57:57.358Z,25.13
2018-03-15T02:00:25.056Z,30.70
2018-03-15T02:02:52.841Z,33.90
2018-03-15T02:05:20.911Z,32.07
2018-03-15T02:07:48.493Z,36.33
2018-03-15T02:10:16.161Z,35.10
2018-03-15T02:12:43.950Z,32.03
2018-03-15T02:15:11.537Z,42.30
2018-03-15T02:17:39.164Z,28.03
2018-03-15T02:20:06.976Z,34.93
2018-03-15T02:22:34.633Z,35.43
2018-03-15T02:25:02.315Z,32.33
2018-03-15T02:27:30.178Z,32.23
2018-03-15T02:29:57.871Z,30.03
2018-03-15T02:32:25.658Z,38.00
2018-03-15T02:34:53.234Z,37.97
2018-03-15T02:37:21.010Z,30.23
2018-03-15T02:39:48.735Z,33.57
2018-03-15T02:42:16.428Z,42.60
2018-03-15T02:44:45.151Z,33.43
2018-03-15T02:47:12.827Z,27.57
2018-03-15T02:49:40.676Z,30.80
2018-03-15T02:52:08.388Z,27.83
2018-03-15T02:54:36.170Z,36.47
2018-03-15T02:57:03.799Z,33.70
2018-03-15T02:59:31.630Z,38.03
2018-03-15T03:01:59.271Z,41.03
2018-03-15T03:04:26.850Z,31.87
2018-03-15T03:06:54.654Z,39.47
2018-03-15T03:09:22.426Z,32.77
2018-03-15T03:11:50.107Z,36.43
2018-03-15T03:14:17.767Z,29.30
2018-03-15T03:16:45.507Z,29.53
2018-03-15T03:19:13.198Z,29.67
2018-03-15T03:21:40.912Z,29.03
2018-03-15T03:24:08.677Z,32.40
2018-03-15T03:26:36.351Z,24.63
2018-03-15T03:29:04.139Z,39.47
2018-03-15T03:31:31.735Z,35.17
2018-03-15T03:33:59.375Z,24.67
2018-03-15T03:36:27.013Z,32.57
2018-03-15T03:38:54.739Z,23.63
2018-03-15T03:41:22.329Z,32.73
2018-03-15T03:43:50.194Z,37.70
2018-03-15T03:46:17.783Z,37.87
2018-03-15T03:48:45.649Z,26.10
2018-03-15T03:51:14.147Z,32.10
2018-03-15T03:53:41.931Z,39.37
2018-03-15T03:56:09.799Z,36.57
2018-03-15T03:58:37.469Z,30.77
2018-03-15T04:01:05.254Z,40.70
2018-03-15T04:03:32.841Z,29.70
2018-03-15T04:06:00.609Z,26.73
2018-03-15T04:08:28.378Z,36.30
2018-03-15T04:10:56.043Z,18.47
2018-03-15T04:13:23.836Z,32.90
2018-03-15T04:15:51.493Z,38.57
2018-03-15T04:18:19.182Z,39.63
2018-03-15T04:20:46.928Z,31.57
2018-03-15T04:23:14.742Z,33.03
2018-03-15T04:25:42.620Z,33.63
2018-03-15T04:28:10.283Z,27.43
2018-03-15T04:30:37.966Z,40.83
2018-03-15T04:33:05.852Z,27.83
2018-03-15T04:35:33.628Z,37.97
2018-03-15T04:38:01.406Z,40.27
2018-03-15T04:40:29.185Z,40.90
2018-03-15T04:42:56.968Z,39.07
2018-03-15T04:45:24.541Z,34.37
2018-03-15T04:47:52.381Z,37.53
2018-03-15T04:50:20.198Z,27.57
2018-03-15T04:52:47.857Z,35.53
2018-03-15T04:55:15.650Z,37.90
2018-03-15T04:57:43.397Z,41.10
2018-03-15T05:00:11.085Z,43.40
2018-03-15T05:02:38.882Z,32.87
2018-03-15T05:05:06.655Z,42.10
2018-03-15T05:07:34.325Z,26.67
2018-03-15T05:10:02.114Z,44.13
2018-03-15T05:12:29.992Z,40.70
2018-03-15T05:14:57.770Z,40.73
2018-03-15T05:17:25.428Z,39.70
2018-03-15T05:19:53.109Z,40.70
2018-03-15T05:22:20.762Z,36.50
2018-03-15T05:24:48.574Z,28.87
2018-03-15T05:27:16.221Z,46.43
2018-03-15T05:29:44.028Z,24.77
2018-03-15T05:32:11.800Z,39.37
2018-03-15T05:34:39.477Z,42.67
2018-03-15T05:37:07.254Z,40.37
2018-03-15T05:39:34.837Z,25.90
2018-03-15T05:42:02.500Z,48.77
2018-03-15T05:44:30.068Z,34.07
2018-03-15T05:46:57.752Z,34.07
2018-03-15T05:49:25.546Z,20.33
2018-03-15T05:51:53.147Z,36.53
2018-03-15T05:54:20.715Z,39.67
2018-03-15T05:56:48.367Z,46.40
2018-03-15T05:59:16.082Z,43.27
2018-03-15T06:01:43.696Z,31.83
2018-03-15T06:04:11.303Z,47.23
2018-03-15T06:06:39.006Z,37.57
2018-03-15T06:09:06.726Z,38.53
2018-03-15T06:11:34.511Z,34.63
2018-03-15T06:14:02.164Z,53.57
2018-03-15T06:16:29.754Z,39.17
2018-03-15T06:18:57.417Z,29.27
2018-03-15T06:21:25.107Z,38.87
2018-03-15T06:23:52.888Z,42.07
2018-03-15T06:26:20.559Z,47.00
2018-03-15T06:28:48.438Z,48.40
2018-03-15T06:31:16.193Z,46.67
2018-03-15T06:33:43.886Z,34.43
2018-03-15T06:36:11.553Z,35.27
2018-03-15T06:38:39.230Z,39.73
2018-03-15T06:41:06.988Z,50.73
2018-03-15T06:43:34.803Z,44.40
2018-03-15T06:46:02.519Z,27.73
2018-03-15T06:48:30.132Z,46.03
2018-03-15T06:50:57.748Z,46.20
2018-03-15T06:53:25.509Z,28.73
2018-03-15T06:55:53.157Z,51.70
2018-03-15T06:58:20.851Z,46.50
2018-03-15T07:00:48.629Z,54.83
2018-03-15T07:03:16.355Z,40.63
2018-03-15T07:05:44.048Z,44.47
2018-03-15T07:08:11.859Z,51.40
2018-03-15T07:10:39.638Z,49.87
2018-03-15T07:13:07.309Z,36.73
2018-03-15T07:15:35.193Z,41.40
2018-03-15T07:18:02.975Z,49.17
2018-03-15T07:20:30.753Z,39.13
2018-03-15T07:22:58.417Z,49.33
2018-03-15T07:25:25.996Z,41.10
2018-03-15T07:27:53.674Z,38.53
2018-03-15T07:30:21.450Z,42.97
2018-03-15T07:32:49.033Z,44.60
2018-03-15T07:35:16.805Z,42.40
2018-03-15T07:37:44.578Z,31.73
2018-03-15T07:40:12.188Z,48.97
2018-03-15T07:42:39.819Z,42.53
2018-03-15T07:45:07.452Z,41.30
2018-03-15T07:47:35.036Z,40.90
2018-03-15T07:50:02.853Z,40.20
2018-03-15T07:52:30.640Z,37.20
2018-03-15T07:54:58.377Z,42.73
2018-03-15T07:57:26.187Z,38.00
2018-03-15T07:59:53.968Z,40.00
2018-03-15T08:02:21.553Z,41.23
2018-03-15T08:04:49.216Z,39.97
2018-03-15T08:07:17.044Z,35.97
2018-03-15T08:09:44.874Z,39.37
2018-03-15T08:12:12.501Z,42.27
2018-03-15T08:14:40.214Z,38.37
2018-03-15T08:17:08.104Z,37.07
2018-03-15T08:19:35.863Z,39.00
2018-03-15T08:22:03.769Z,35.03
2018-03-15T08:24:31.520Z,34.60
2018-03-15T08:26:59.210Z,29.47
2018-03-15T08:29:26.990Z,28.67
2018-03-15T08:31:54.691Z,37.47
2018-03-15T08:34:22.344Z,33.93
2018-03-15T08:36:50.123Z,33.10
2018-03-15T08:39:17.770Z,32.03
2018-03-15T08:41:45.471Z,35.10
2018-03-15T08:44:13.133Z,41.17
2018-03-15T08:46:40.923Z,37.00
2018-03-15T08:49:08.586Z,37.00
2018-03-15T08:51:36.270Z,35.20
2018-03-15T08:54:04.154Z,31.63
2018-03-15T08:56:31.938Z,40.03
2018-03-15T08:58:59.568Z,37.97
2018-03-15T09:01:27.164Z,41.13
2018-03-15T09:03:54.909Z,36.67
2018-03-15T09:06:22.535Z,33.90
2018-03-15T09:08:50.460Z,34.10
2018-03-15T09:11:18.090Z,37.00
2018-03-15T09:13:45.872Z,32.40
2018-03-15T09:16:13.746Z,26.90
2018-03-15T09:18:41.413Z,36.80
2018-03-15T09:21:09.150Z,36.10
2018-03-15T09:23:36.916Z,36.63
2018-03-15T09:26:04.560Z,33.37
2018-03-15T09:28:32.225Z,26.60
2018-03-15T09:30:59.880Z,37.47
2018-03-15T09:33:27.550Z,33.60
2018-03-15T09:35:55.251Z,28.20
2018-03-15T09:38:23.133Z,37.50
2018-03-15T09:40:50.911Z,35.70
2018-03-15T09:43:18.575Z,35.67
2018-03-15T09:45:46.318Z,36.33
2018-03-15T09:48:13.981Z,31.97
2018-03-15T09:50:41.595Z,36.70
2018-03-15T09:53:09.439Z,24.93
2018-03-15T09:55:37.272Z,31.97
2018-03-15T09:58:05.152Z,29.00
2018-03-15T10:00:32.951Z,35.57
2018-03-15T10:03:00.715Z,34.63
2018-03-15T10:05:28.370Z,33.27
2018-03-15T10:07:56.004Z,33.60
2018-03-15T10:10:23.724Z,31.00
2018-03-15T10:12:51.571Z,28.40
2018-03-15T10:15:19.273Z,30.37
2018-03-15T10:17:46.959Z,31.90
2018-03-15T10:20:14.821Z,26.30
2018-03-15T10:22:42.620Z,31.83
2018-03-15T10:25:13.770Z,30.20
2018-03-15T10:27:38.173Z,38.77
2018-03-15T10:30:06.057Z,36.00
2018-03-15T10:32:33.693Z,34.93
2018-03-15T10:35:06.994Z,29.67
2018-03-15T10:37:39.630Z,33.00
2018-03-15T10:40:07.509Z,29.30
2018-03-15T10:42:35.122Z,32.20
2018-03-15T10:45:02.850Z,30.80
2018-03-15T10:47:30.728Z,31.63
2018-03-15T10:49:58.627Z,40.20
2018-03-15T10:52:26.298Z,30.77
2018-03-15T10:54:53.908Z,35.20
2018-03-15T10:57:21.752Z,30.93
2018-03-15T10:59:49.441Z,23.53
2018-03-15T11:02:18.789Z,32.20
2018-03-15T11:04:52.258Z,21.87
2018-03-15T11:07:25.508Z,29.63
2018-03-15T11:09:53.132Z,29.20
2018-03-15T11:12:20.992Z,26.57
2018-03-15T11:14:48.798Z,27.50
2018-03-15T11:17:16.574Z,34.73
2018-03-15T11:19:44.459Z,31.67
2018-03-15T11:22:12.133Z,30.77
2018-03-15T11:24:39.772Z,31.93
2018-03-15T11:27:07.467Z,29.03
2018-03-15T11:29:35.333Z,33.23
2018-03-15T11:32:03.243Z,33.30
2018-03-15T11:34:31.019Z,32.53
2018-03-15T11:36:58.755Z,28.47
2018-03-15T11:39:26.455Z,29.43
2018-03-15T11:41:54.152Z,29.00
2018-03-15T11:44:21.923Z,29.30
2018-03-15T11:46:49.803Z,33.03
2018-03-15T11:49:17.582Z,39.80
2018-03-15T11:51:45.358Z,29.73
2018-03-15T11:54:13.128Z,36.07
2018-03-15T11:56:40.916Z,40.10
2018-03-15T11:59:08.576Z,26.20
2018-03-15T12:01:36.378Z,26.00
2018-03-15T12:04:04.061Z,33.80
2018-03-15T12:06:31.698Z,45.47
2018-03-15T12:08:59.500Z,32.00
2018-03-15T12:11:27.100Z,35.60
2018-03-15T12:13:54.757Z,30.67
2018-03-15T12:16:22.410Z,32.17
2018-03-15T12:18:50.092Z,27.60
2018-03-15T12:21:17.852Z,32.10
2018-03-15T12:23:47.497Z,34.00
2018-03-15T12:26:15.374Z,32.00
2018-03-15T12:28:43.152Z,29.13
2018-03-15T12:31:10.932Z,36.10
2018-03-15T12:33:38.707Z,30.47
2018-03-15T12:36:06.587Z,34.43
2018-03-15T12:38:34.366Z,26.57
2018-03-15T12:41:02.109Z,31.33
2018-03-15T12:43:29.925Z,32.13
2018-03-15T12:45:57.572Z,32.00
2018-03-15T12:48:25.268Z,28.60
2018-03-15T12:50:53.052Z,30.20
2018-03-15T12:53:20.833Z,28.30
2018-03-15T12:55:48.610Z,33.07
2018-03-15T12:58:16.282Z,24.37
2018-03-15T13:00:43.938Z,32.13
2018-03-15T13:03:11.620Z,35.20
2018-03-15T13:05:39.551Z,31.17
2018-03-15T13:08:07.174Z,35.57
2018-03-15T13:10:34.756Z,30.80
2018-03-15T13:13:02.639Z,35.47
2018-03-15T13:15:30.319Z,32.63
2018-03-15T13:17:58.093Z,32.53
2018-03-15T13:20:25.767Z,33.53
2018-03-15T13:22:53.436Z,30.33
2018-03-15T13:25:21.014Z,31.40
2018-03-15T13:27:48.800Z,37.10
2018-03-15T13:30:16.510Z,32.77
2018-03-15T13:32:44.248Z,32.73
2018-03-15T13:35:12.031Z,28.60
2018-03-15T13:37:39.620Z,29.10
2018-03-15T13:40:07.481Z,28.90
2018-03-15T13:42:35.648Z,30.87
2018-03-15T13:45:03.478Z,28.70
2018-03-15T13:47:31.066Z,33.03
2018-03-15T13:49:58.688Z,27.73
2018-03-15T13:52:26.353Z,29.23
2018-03-15T13:54:53.932Z,25.40
2018-03-15T13:57:21.526Z,39.53
2018-03-15T13:59:49.405Z,37.77
2018-03-15T14:02:17.172Z,25.30
2018-03-15T14:04:44.940Z,29.73
2018-03-15T14:07:12.593Z,30.37
2018-03-15T14:09:40.292Z,37.40
2018-03-15T14:12:07.966Z,31.47
2018-03-15T14:14:35.742Z,37.87
2018-03-15T14:17:03.416Z,33.60
2018-03-15T14:19:31.080Z,29.93
2018-03-15T14:21:58.884Z,40.00
2018-03-15T14:24:26.562Z,41.37
2018-03-15T14:26:54.203Z,37.67
2018-03-15T14:29:21.848Z,34.50
2018-03-15T14:31:49.538Z,33.73
2018-03-15T14:34:17.363Z,34.67
2018-03-15T14:36:44.961Z,33.97
2018-03-15T14:39:12.534Z,30.83
2018-03-15T14:41:40.178Z,34.70
2018-03-15T14:44:07.861Z,35.43
2018-03-15T14:46:35.690Z,35.30
2018-03-15T14:49:03.318Z,28.93
2018-03-15T14:51:31.153Z,31.30
2018-03-15T14:53:58.972Z,26.40
2018-03-15T14:56:26.753Z,35.97
2018-03-15T14:58:54.630Z,36.33
2018-03-15T15:01:22.290Z,26.20
2018-03-15T15:03:49.922Z,35.63
2018-03-15T15:06:17.573Z,32.50
2018-03-15T15:08:45.334Z,34.90
2018-03-15T15:11:13.102Z,37.83
2018-03-15T15:13:40.893Z,28.40
2018-03-15T15:16:08.510Z,35.97
2018-03-15T15:18:36.342Z,37.77
2018-03-15T15:21:04.124Z,41.83
2018-03-15T15:23:31.907Z,29.37
2018-03-15T15:25:59.869Z,38.47
2018-03-15T15:28:27.613Z,38.43
2018-03-15T15:30:55.229Z,37.50
2018-03-15T15:33:23.114Z,36.63
2018-03-15T15:35:50.835Z,38.17
2018-03-15T15:38:18.451Z,42.70
2018-03-15T15:40:46.352Z,33.13
2018-03-15T15:43:14.125Z,30.87
2018-03-15T15:45:41.896Z,50.97
2018-03-15T15:48:09.518Z,35.10
2018-03-15T15:50:37.249Z,34.77
2018-03-15T15:53:05.030Z,41.60
2018-03-15T15:55:32.621Z,32.90
2018-03-15T15:58:00.379Z,36.43
2018-03-15T16:00:28.156Z,35.03
2018-03-15T16:02:56.037Z,34.43
2018-03-15T16:05:23.711Z,41.33
2018-03-15T16:07:51.386Z,33.10
2018-03-15T16:10:19.063Z,41.13
2018-03-15T16:12:46.733Z,55.50
2018-03-15T16:15:14.396Z,32.30
2018-03-15T16:17:41.985Z,36.83
2018-03-15T16:20:09.649Z,36.80
2018-03-15T16:22:37.328Z,34.37
2018-03-15T16:25:05.101Z,41.00
2018-03-15T16:27:32.904Z,42.30
2018-03-15T16:30:00.564Z,41.30
2018-03-15T16:32:28.347Z,40.10
2018-03-15T16:34:56.004Z,35.77
2018-03-15T16:37:23.693Z,45.80
2018-03-15T16:39:51.370Z,37.33
2018-03-15T16:42:19.043Z,43.03
2018-03-15T16:44:46.824Z,47.80
2018-03-15T16:47:14.603Z,39.43
2018-03-15T16:49:42.275Z,41.00
2018-03-15T16:52:10.123Z,44.40
2018-03-15T16:54:37.832Z,42.90
2018-03-15T16:57:05.419Z,49.00
2018-03-15T16:59:33.292Z,42.00
2018-03-15T17:02:01.004Z,33.13
2018-03-15T17:04:28.626Z,41.30
2018-03-15T17:06:56.289Z,36.93
2018-03-15T17:09:24.094Z,47.70
2018-03-15T17:11:51.705Z,47.70
2018-03-15T17:14:19.548Z,48.90
2018-03-15T17:16:47.265Z,38.17
2018-03-15T17:19:14.929Z,47.20
2018-03-15T17:21:42.662Z,32.70
2018-03-15T17:24:10.454Z,36.90
2018-03-15T17:26:38.045Z,53.90
2018-03-15T17:29:05.805Z,60.00
2018-03-15T17:31:33.686Z,53.70
2018-03-15T17:34:01.465Z,47.67
2018-03-15T17:36:29.243Z,44.67
2018-03-15T17:38:56.888Z,58.63
2018-03-15T17:41:24.693Z,69.40
2018-03-15T17:43:52.469Z,41.33
2018-03-15T17:46:20.313Z,46.57
2018-03-15T17:48:48.128Z,55.90
2018-03-15T17:51:16.829Z,44.20
2018-03-15T17:53:44.711Z,58.33
2018-03-15T17:56:12.303Z,57.90
2018-03-15T17:58:40.018Z,52.17
2018-03-15T18:01:07.653Z,53.07
2018-03-15T18:03:35.300Z,51.53
2018-03-15T18:06:02.922Z,52.73
2018-03-15T18:08:30.522Z,54.67
2018-03-15T18:10:58.179Z,56.90
2018-03-15T18:13:25.794Z,39.90
2018-03-15T18:15:53.475Z,51.83
2018-03-15T18:18:21.146Z,62.03
2018-03-15T18:20:48.896Z,61.40
2018-03-15T18:23:16.716Z,53.77
2018-03-15T18:25:44.337Z,65.90
2018-03-15T18:28:12.007Z,50.67
2018-03-15T18:30:39.615Z,43.50
2018-03-15T18:33:07.292Z,60.07
2018-03-15T18:35:34.920Z,50.23
2018-03-15T18:38:02.764Z,57.67
2018-03-15T18:40:30.410Z,60.83
2018-03-15T18:42:58.073Z,57.70
2018-03-15T18:45:25.686Z,58.50
2018-03-15T18:47:53.363Z,57.07
2018-03-15T18:50:21.145Z,56.77
2018-03-15T18:52:48.816Z,60.20
2018-03-15T18:55:16.577Z,55.17
2018-03-15T18:57:44.157Z,60.00
2018-03-15T19:00:11.769Z,63.67
2018-03-15T19:02:39.408Z,57.10
2018-03-15T19:05:07.044Z,52.67
2018-03-15T19:07:34.664Z,55.77
2018-03-15T19:10:02.429Z,53.07
2018-03-15T19:12:30.072Z,51.23
2018-03-15T19:14:57.756Z,64.33
2018-03-15T19:17:25.381Z,46.80
2018-03-15T19:19:53.011Z,65.67
2018-03-15T19:22:20.679Z,53.37
2018-03-15T19:24:48.253Z,53.83
2018-03-15T19:27:15.878Z,47.67
2018-03-15T19:29:43.539Z,52.60
2018-03-15T19:32:11.203Z,51.77
2018-03-15T19:34:38.894Z,46.53
2018-03-15T19:37:06.536Z,60.27
2018-03-15T19:39:34.246Z,62.40
2018-03-15T19:42:02.025Z,58.90
2018-03-15T19:44:29.655Z,55.30
2018-03-15T19:46:57.316Z,63.90
2018-03-15T19:49:24.952Z,61.40
2018-03-15T19:51:52.589Z,55.97
2018-03-15T19:54:20.400Z,61.60
2018-03-15T19:56:48.176Z,60.23
2018-03-15T19:59:15.824Z,45.43
2018-03-15T20:01:43.527Z,53.43
2018-03-15T20:04:11.145Z,57.43
2018-03-15T20:06:38.761Z,57.37
2018-03-15T20:09:06.438Z,50.97
2018-03-15T20:11:34.033Z,57.37
2018-03-15T20:14:01.616Z,56.03
2018-03-15T20:16:29.255Z,64.17
2018-03-15T20:19:02.428Z,50.30
2018-03-15T20:21:30.137Z,55.67
2018-03-15T20:24:03.565Z,61.57
2018-03-15T20:26:31.226Z,50.97
2018-03-15T20:28:58.979Z,57.57
2018-03-15T20:31:26.800Z,57.77
2018-03-15T20:34:00.009Z,50.00
2018-03-15T20:36:27.764Z,51.43
2018-03-15T20:38:55.564Z,46.30
2018-03-15T20:41:28.237Z,52.53
2018-03-15T20:43:55.923Z,60.50
2018-03-15T20:46:29.132Z,42.30
2018-03-15T20:49:02.449Z,55.13
2018-03-15T20:51:30.206Z,41.70
2018-03-15T20:53:57.893Z,57.63
2018-03-15T20:56:25.570Z,55.30
2018-03-15T20:58:53.347Z,56.60
2018-03-15T21:01:21.132Z,61.90
2018-03-15T21:03:48.956Z,52.83
2018-03-15T21:06:16.783Z,67.77
2018-03-15T21:08:44.445Z,54.63
2018-03-15T21:11:12.241Z,70.00
2018-03-15T21:13:39.971Z,64.63
2018-03-15T21:16:07.763Z,66.77
2018-03-15T21:18:35.568Z,54.60
2018-03-15T21:21:03.317Z,52.80
2018-03-15T21:23:31.024Z,58.57
2018-03-15T21:25:58.911Z,72.13
2018-03-15T21:28:26.492Z,63.90
2018-03-15T21:30:54.151Z,66.80
2018-03-15T21:33:21.778Z,59.87
2018-03-15T21:35:49.508Z,70.50
2018-03-15T21:38:17.180Z,58.17
2018-03-15T21:40:44.970Z,55.93
2018-03-15T21:43:12.715Z,50.37
2018-03-15T21:45:40.523Z,74.50
2018-03-15T21:48:08.109Z,52.60
2018-03-15T21:50:35.975Z,72.20
2018-03-15T21:53:03.750Z,76.17
2018-03-15T21:55:31.638Z,47.53
2018-03-15T21:57:59.234Z,67.10
2018-03-15T22:00:27.088Z,45.10
2018-03-15T22:02:54.748Z,80.73
2018-03-15T22:05:22.432Z,52.27
2018-03-15T22:07:50.318Z,74.47
2018-03-15T22:10:17.978Z,57.43
2018-03-15T22:12:45.653Z,63.50
2018-03-15T22:15:13.338Z,58.90
2018-03-15T22:17:41.095Z,55.87
2018-03-15T22:20:08.776Z,55.80
2018-03-15T22:22:36.580Z,74.80
2018-03-15T22:25:04.232Z,59.93
2018-03-15T22:27:32.030Z,65.13
2018-03-15T22:29:59.851Z,65.20
2018-03-15T22:32:27.703Z,66.27
2018-03-15T22:34:55.462Z,57.80
2018-03-15T22:37:23.139Z,75.07
2018-03-15T22:39:50.798Z,93.10
2018-03-15T22:42:18.498Z,63.23
2018-03-15T22:44:46.168Z,53.53
2018-03-15T22:47:13.780Z,66.60
2018-03-15T22:49:41.360Z,77.53
2018-03-15T22:52:09.197Z,64.13
2018-03-15T22:54:36.862Z,46.30
2018-03-15T22:57:04.752Z,57.87
2018-03-15T22:59:32.524Z,64.23
2018-03-15T23:02:00.305Z,65.07
2018-03-15T23:04:28.107Z,73.33
2018-03-15T23:06:55.822Z,64.80
2018-03-15T23:09:23.438Z,68.03
2018-03-15T23:11:51.107Z,78.03
2018-03-15T23:14:18.689Z,65.47
2018-03-15T23:16:46.457Z,71.37
2018-03-15T23:19:14.223Z,65.67
2018-03-15T23:21:41.909Z,73.07
2018-03-15T23:24:09.691Z,85.03
2018-03-15T23:26:37.355Z,65.53
2018-03-15T23:29:04.945Z,75.13
2018-03-15T23:31:32.719Z,64.03
2018-03-15T23:34:00.456Z,70.23
2018-03-15T23:36:28.057Z,65.10
2018-03-15T23:38:55.665Z,72.57
2018-03-15T23:41:23.300Z,66.13
2018-03-15T23:43:51.199Z,67.77
2018-03-15T23:46:18.963Z,68.83
2018-03-15T23:48:46.556Z,55.00
2018-03-15T23:51:14.371Z,69.63
2018-03-15T23:53:42.002Z,72.00
2018-03-15T23:56:09.667Z,69.77
2018-03-15T23:58:37.456Z,62.90
